Oceanville, New Jersey
Current Conditions -  °F | °C
As of 4:54 AM on Sunday 23 Nov 2014 (Local Time) from KACY Reporting Station
Clear Clear  
Wind Chill: 36°   Ceiling: Unl
Heat Index: 41°   Visibility: 10mi
Dew Point: 25°   Wind: 8mph
Humidity: 53%   Direction: 210°SSW
Pressure: 30.21"   Gusts: NA
Location:  39.47°N, 74.46°W
Report Text: KACY 230954Z 21007KT 10SM CLR 05/M04 A3021 RMK AO2 SLP232 T00501039
Loading
Personal Weather Stations






























Interactive Weather Map New forecast layout! Learn more

10-Day Weather Forecast

Advertisements
Track Severe Weather on mobile